sensor_id;sensor_type;location;lat;lon;timestamp;P1;durP1;ratioP1;P2;durP2;ratioP2
70477;SDS011;57956;53.362;-1.518;2023-06-22T00:00:59;5.57;;;1.30;;
70477;SDS011;57956;53.362;-1.518;2023-06-22T00:03:25;4.60;;;1.30;;
70477;SDS011;57956;53.362;-1.518;2023-06-22T00:05:51;4.47;;;1.40;;
70477;SDS011;57956;53.362;-1.518;2023-06-22T00:08:16;4.55;;;1.33;;
70477;SDS011;57956;53.362;-1.518;2023-06-22T00:10:42;4.63;;;1.47;;
70477;SDS011;57956;53.362;-1.518;2023-06-22T00:13:07;4.43;;;1.10;;
70477;SDS011;57956;53.362;-1.518;2023-06-22T00:15:33;5.70;;;1.43;;
70477;SDS011;57956;53.362;-1.518;2023-06-22T00:17:58;6.37;;;1.40;;
70477;SDS011;57956;53.362;-1.518;2023-06-22T00:20:24;4.32;;;1.00;;
70477;SDS011;57956;53.362;-1.518;2023-06-22T00:22:53;4.43;;;1.20;;
70477;SDS011;57956;53.362;-1.518;2023-06-22T00:25:18;4.85;;;1.13;;
70477;SDS011;57956;53.362;-1.518;2023-06-22T00:27:44;4.07;;;0.90;;
70477;SDS011;57956;53.362;-1.518;2023-06-22T00:30:09;5.50;;;1.30;;
70477;SDS011;57956;53.362;-1.518;2023-06-22T00:32:34;4.43;;;1.20;;
70477;SDS011;57956;53.362;-1.518;2023-06-22T00:35:00;3.60;;;1.17;;
70477;SDS011;57956;53.362;-1.518;2023-06-22T00:37:25;4.63;;;1.50;;
70477;SDS011;57956;53.362;-1.518;2023-06-22T00:39:53;4.30;;;1.10;;
70477;SDS011;57956;53.362;-1.518;2023-06-22T00:42:19;3.40;;;0.80;;
70477;SDS011;57956;53.362;-1.518;2023-06-22T00:44:44;5.47;;;1.30;;
70477;SDS011;57956;53.362;-1.518;2023-06-22T00:47:10;3.20;;;1.00;;
70477;SDS011;57956;53.362;-1.518;2023-06-22T00:49:37;5.43;;;1.00;;
70477;SDS011;57956;53.362;-1.518;2023-06-22T00:52:03;3.77;;;1.00;;
70477;SDS011;57956;53.362;-1.518;2023-06-22T00:54:34;3.75;;;0.90;;
70477;SDS011;57956;53.362;-1.518;2023-06-22T00:56:59;4.90;;;1.20;;
70477;SDS011;57956;53.362;-1.518;2023-06-22T00:59:25;3.47;;;1.27;;
70477;SDS011;57956;53.362;-1.518;2023-06-22T01:01:51;4.47;;;1.02;;
70477;SDS011;57956;53.362;-1.518;2023-06-22T01:04:16;4.37;;;1.10;;
70477;SDS011;57956;53.362;-1.518;2023-06-22T01:06:45;5.40;;;1.40;;
70477;SDS011;57956;53.362;-1.518;2023-06-22T01:09:14;4.55;;;1.00;;
70477;SDS011;57956;53.362;-1.518;2023-06-22T01:11:49;4.50;;;1.00;;
70477;SDS011;57956;53.362;-1.518;2023-06-22T01:14:23;3.47;;;1.15;;
70477;SDS011;57956;53.362;-1.518;2023-06-22T01:16:49;4.57;;;1.02;;
70477;SDS011;57956;53.362;-1.518;2023-06-22T01:22:00;4.25;;;0.93;;
70477;SDS011;57956;53.362;-1.518;2023-06-22T01:24:33;4.10;;;1.00;;
70477;SDS011;57956;53.362;-1.518;2023-06-22T01:29:30;5.22;;;1.00;;
70477;SDS011;57956;53.362;-1.518;2023-06-22T01:31:55;4.37;;;0.93;;
70477;SDS011;57956;53.362;-1.518;2023-06-22T01:34:21;3.67;;;0.75;;
70477;SDS011;57956;53.362;-1.518;2023-06-22T01:36:47;3.77;;;0.80;;
70477;SDS011;57956;53.362;-1.518;2023-06-22T01:39:12;3.78;;;1.02;;
70477;SDS011;57956;53.362;-1.518;2023-06-22T01:41:38;4.13;;;0.90;;
70477;SDS011;57956;53.362;-1.518;2023-06-22T01:44:07;5.25;;;1.23;;
70477;SDS011;57956;53.362;-1.518;2023-06-22T01:46:34;4.82;;;1.10;;
70477;SDS011;57956;53.362;-1.518;2023-06-22T01:48:59;4.25;;;1.15;;
70477;SDS011;57956;53.362;-1.518;2023-06-22T01:51:25;7.33;;;1.23;;
70477;SDS011;57956;53.362;-1.518;2023-06-22T01:53:50;4.27;;;0.83;;
70477;SDS011;57956;53.362;-1.518;2023-06-22T01:56:16;4.20;;;1.10;;
70477;SDS011;57956;53.362;-1.518;2023-06-22T01:58:44;4.47;;;1.08;;
70477;SDS011;57956;53.362;-1.518;2023-06-22T02:01:12;4.30;;;1.23;;
70477;SDS011;57956;53.362;-1.518;2023-06-22T02:03:42;4.13;;;1.20;;
70477;SDS011;57956;53.362;-1.518;2023-06-22T02:06:20;4.38;;;1.10;;
70477;SDS011;57956;53.362;-1.518;2023-06-22T02:08:48;4.60;;;1.20;;
70477;SDS011;57956;53.362;-1.518;2023-06-22T02:11:15;4.05;;;0.93;;
70477;SDS011;57956;53.362;-1.518;2023-06-22T02:13:41;3.70;;;1.00;;
70477;SDS011;57956;53.362;-1.518;2023-06-22T02:16:09;3.67;;;1.00;;
70477;SDS011;57956;53.362;-1.518;2023-06-22T02:18:35;3.75;;;1.05;;
70477;SDS011;57956;53.362;-1.518;2023-06-22T02:21:02;3.58;;;0.80;;
70477;SDS011;57956;53.362;-1.518;2023-06-22T02:23:27;4.93;;;1.10;;
70477;SDS011;57956;53.362;-1.518;2023-06-22T02:25:53;4.40;;;1.17;;
70477;SDS011;57956;53.362;-1.518;2023-06-22T02:28:18;6.13;;;1.00;;
70477;SDS011;57956;53.362;-1.518;2023-06-22T02:30:43;3.67;;;1.10;;
70477;SDS011;57956;53.362;-1.518;2023-06-22T02:33:08;4.13;;;1.07;;
70477;SDS011;57956;53.362;-1.518;2023-06-22T02:35:34;5.27;;;1.50;;
70477;SDS011;57956;53.362;-1.518;2023-06-22T02:38:01;6.35;;;1.25;;
70477;SDS011;57956;53.362;-1.518;2023-06-22T02:40:27;3.83;;;1.02;;
70477;SDS011;57956;53.362;-1.518;2023-06-22T02:42:52;4.10;;;0.90;;
70477;SDS011;57956;53.362;-1.518;2023-06-22T02:45:17;8.20;;;1.70;;
70477;SDS011;57956;53.362;-1.518;2023-06-22T02:47:43;4.37;;;1.03;;
70477;SDS011;57956;53.362;-1.518;2023-06-22T02:50:08;6.37;;;0.73;;
70477;SDS011;57956;53.362;-1.518;2023-06-22T02:52:33;5.43;;;1.20;;
70477;SDS011;57956;53.362;-1.518;2023-06-22T02:54:59;3.87;;;1.00;;
70477;SDS011;57956;53.362;-1.518;2023-06-22T02:57:24;3.87;;;1.07;;
70477;SDS011;57956;53.362;-1.518;2023-06-22T02:59:49;7.20;;;1.10;;
70477;SDS011;57956;53.362;-1.518;2023-06-22T03:02:14;3.70;;;1.17;;
70477;SDS011;57956;53.362;-1.518;2023-06-22T03:04:39;4.63;;;1.20;;
70477;SDS011;57956;53.362;-1.518;2023-06-22T03:07:05;4.73;;;1.00;;
70477;SDS011;57956;53.362;-1.518;2023-06-22T03:09:30;3.53;;;1.00;;
70477;SDS011;57956;53.362;-1.518;2023-06-22T03:11:55;4.07;;;1.37;;
70477;SDS011;57956;53.362;-1.518;2023-06-22T03:14:21;4.20;;;0.97;;
70477;SDS011;57956;53.362;-1.518;2023-06-22T03:16:46;4.80;;;1.10;;
70477;SDS011;57956;53.362;-1.518;2023-06-22T03:19:11;4.23;;;1.20;;
70477;SDS011;57956;53.362;-1.518;2023-06-22T03:21:37;3.60;;;1.17;;
70477;SDS011;57956;53.362;-1.518;2023-06-22T03:24:03;5.05;;;1.02;;
70477;SDS011;57956;53.362;-1.518;2023-06-22T03:26:29;4.80;;;1.38;;
70477;SDS011;57956;53.362;-1.518;2023-06-22T03:28:55;4.37;;;0.90;;
70477;SDS011;57956;53.362;-1.518;2023-06-22T03:31:20;4.72;;;1.15;;
70477;SDS011;57956;53.362;-1.518;2023-06-22T03:33:46;4.25;;;0.98;;
70477;SDS011;57956;53.362;-1.518;2023-06-22T03:36:12;3.83;;;0.80;;
70477;SDS011;57956;53.362;-1.518;2023-06-22T03:38:37;3.90;;;0.73;;
70477;SDS011;57956;53.362;-1.518;2023-06-22T03:41:02;4.27;;;1.20;;
70477;SDS011;57956;53.362;-1.518;2023-06-22T03:43:27;3.37;;;0.60;;
70477;SDS011;57956;53.362;-1.518;2023-06-22T03:45:53;4.73;;;1.13;;
70477;SDS011;57956;53.362;-1.518;2023-06-22T03:48:18;4.53;;;0.98;;
70477;SDS011;57956;53.362;-1.518;2023-06-22T03:50:43;4.17;;;0.90;;
70477;SDS011;57956;53.362;-1.518;2023-06-22T03:53:09;4.50;;;1.00;;
70477;SDS011;57956;53.362;-1.518;2023-06-22T03:55:35;3.28;;;0.80;;
70477;SDS011;57956;53.362;-1.518;2023-06-22T03:58:00;4.70;;;0.93;;
70477;SDS011;57956;53.362;-1.518;2023-06-22T04:00:30;4.95;;;1.33;;
70477;SDS011;57956;53.362;-1.518;2023-06-22T04:02:55;3.57;;;0.93;;
70477;SDS011;57956;53.362;-1.518;2023-06-22T04:05:21;3.87;;;0.80;;
70477;SDS011;57956;53.362;-1.518;2023-06-22T04:07:46;3.50;;;0.87;;
70477;SDS011;57956;53.362;-1.518;2023-06-22T04:10:11;5.67;;;1.07;;
70477;SDS011;57956;53.362;-1.518;2023-06-22T04:12:37;5.60;;;0.63;;
70477;SDS011;57956;53.362;-1.518;2023-06-22T04:15:02;2.90;;;0.77;;
70477;SDS011;57956;53.362;-1.518;2023-06-22T04:17:27;4.17;;;1.20;;
70477;SDS011;57956;53.362;-1.518;2023-06-22T04:19:52;6.13;;;1.27;;
70477;SDS011;57956;53.362;-1.518;2023-06-22T04:22:18;4.53;;;1.03;;
70477;SDS011;57956;53.362;-1.518;2023-06-22T04:24:43;4.10;;;1.00;;
70477;SDS011;57956;53.362;-1.518;2023-06-22T04:27:09;4.10;;;1.10;;
70477;SDS011;57956;53.362;-1.518;2023-06-22T04:29:34;4.33;;;0.90;;
70477;SDS011;57956;53.362;-1.518;2023-06-22T04:31:59;7.00;;;1.23;;
70477;SDS011;57956;53.362;-1.518;2023-06-22T04:34:30;3.70;;;1.17;;
70477;SDS011;57956;53.362;-1.518;2023-06-22T04:36:56;5.00;;;1.10;;
70477;SDS011;57956;53.362;-1.518;2023-06-22T04:39:21;4.07;;;1.17;;
70477;SDS011;57956;53.362;-1.518;2023-06-22T04:41:47;4.40;;;1.43;;
70477;SDS011;57956;53.362;-1.518;2023-06-22T04:44:16;4.77;;;1.00;;
70477;SDS011;57956;53.362;-1.518;2023-06-22T04:46:49;4.45;;;0.60;;
70477;SDS011;57956;53.362;-1.518;2023-06-22T04:49:19;5.13;;;1.38;;
70477;SDS011;57956;53.362;-1.518;2023-06-22T04:51:45;4.07;;;1.38;;
70477;SDS011;57956;53.362;-1.518;2023-06-22T04:54:10;5.10;;;1.60;;
70477;SDS011;57956;53.362;-1.518;2023-06-22T04:56:35;4.67;;;1.03;;
70477;SDS011;57956;53.362;-1.518;2023-06-22T04:59:01;5.35;;;1.40;;
70477;SDS011;57956;53.362;-1.518;2023-06-22T05:01:26;5.87;;;1.40;;
70477;SDS011;57956;53.362;-1.518;2023-06-22T05:03:51;6.83;;;1.53;;
70477;SDS011;57956;53.362;-1.518;2023-06-22T05:06:23;4.28;;;1.27;;
70477;SDS011;57956;53.362;-1.518;2023-06-22T05:08:55;6.18;;;1.85;;
70477;SDS011;57956;53.362;-1.518;2023-06-22T05:11:27;5.43;;;1.80;;
70477;SDS011;57956;53.362;-1.518;2023-06-22T05:13:52;5.35;;;1.63;;
70477;SDS011;57956;53.362;-1.518;2023-06-22T05:16:17;3.83;;;1.20;;
70477;SDS011;57956;53.362;-1.518;2023-06-22T05:18:43;6.27;;;1.60;;
70477;SDS011;57956;53.362;-1.518;2023-06-22T05:21:08;5.63;;;1.42;;
70477;SDS011;57956;53.362;-1.518;2023-06-22T05:23:33;5.43;;;1.53;;
70477;SDS011;57956;53.362;-1.518;2023-06-22T05:25:59;3.80;;;1.30;;
70477;SDS011;57956;53.362;-1.518;2023-06-22T05:28:24;7.57;;;1.43;;
70477;SDS011;57956;53.362;-1.518;2023-06-22T05:30:49;6.13;;;1.23;;
70477;SDS011;57956;53.362;-1.518;2023-06-22T05:33:15;5.07;;;1.27;;
70477;SDS011;57956;53.362;-1.518;2023-06-22T05:35:40;4.00;;;1.23;;
70477;SDS011;57956;53.362;-1.518;2023-06-22T05:38:05;5.73;;;1.80;;
70477;SDS011;57956;53.362;-1.518;2023-06-22T05:40:31;5.00;;;1.27;;
70477;SDS011;57956;53.362;-1.518;2023-06-22T05:42:56;4.33;;;1.50;;
70477;SDS011;57956;53.362;-1.518;2023-06-22T05:45:23;5.23;;;1.50;;
70477;SDS011;57956;53.362;-1.518;2023-06-22T05:47:49;5.55;;;1.55;;
70477;SDS011;57956;53.362;-1.518;2023-06-22T05:50:14;5.33;;;1.27;;
70477;SDS011;57956;53.362;-1.518;2023-06-22T05:52:39;5.03;;;1.27;;
70477;SDS011;57956;53.362;-1.518;2023-06-22T05:55:04;4.77;;;1.10;;
70477;SDS011;57956;53.362;-1.518;2023-06-22T05:57:30;4.88;;;0.90;;
70477;SDS011;57956;53.362;-1.518;2023-06-22T05:59:55;3.97;;;1.00;;
70477;SDS011;57956;53.362;-1.518;2023-06-22T06:02:20;3.57;;;1.00;;
70477;SDS011;57956;53.362;-1.518;2023-06-22T06:04:46;3.60;;;1.00;;
70477;SDS011;57956;53.362;-1.518;2023-06-22T06:07:11;4.70;;;1.10;;
70477;SDS011;57956;53.362;-1.518;2023-06-22T06:09:36;3.87;;;1.20;;
70477;SDS011;57956;53.362;-1.518;2023-06-22T06:12:01;4.07;;;1.10;;
70477;SDS011;57956;53.362;-1.518;2023-06-22T06:14:28;4.82;;;1.10;;
70477;SDS011;57956;53.362;-1.518;2023-06-22T06:16:53;3.60;;;0.93;;
70477;SDS011;57956;53.362;-1.518;2023-06-22T06:19:18;3.70;;;1.10;;
70477;SDS011;57956;53.362;-1.518;2023-06-22T06:21:43;3.90;;;1.17;;
70477;SDS011;57956;53.362;-1.518;2023-06-22T06:24:09;4.70;;;1.23;;
70477;SDS011;57956;53.362;-1.518;2023-06-22T06:26:34;4.90;;;1.03;;
70477;SDS011;57956;53.362;-1.518;2023-06-22T06:29:00;4.97;;;1.10;;
70477;SDS011;57956;53.362;-1.518;2023-06-22T06:31:27;5.90;;;1.45;;
70477;SDS011;57956;53.362;-1.518;2023-06-22T06:33:53;4.13;;;1.10;;
70477;SDS011;57956;53.362;-1.518;2023-06-22T06:36:19;3.97;;;0.93;;
70477;SDS011;57956;53.362;-1.518;2023-06-22T06:38:44;4.10;;;1.13;;
70477;SDS011;57956;53.362;-1.518;2023-06-22T06:41:09;4.35;;;1.10;;
70477;SDS011;57956;53.362;-1.518;2023-06-22T06:43:34;3.43;;;0.80;;
70477;SDS011;57956;53.362;-1.518;2023-06-22T06:46:00;3.80;;;1.00;;
70477;SDS011;57956;53.362;-1.518;2023-06-22T06:48:25;4.50;;;1.00;;
70477;SDS011;57956;53.362;-1.518;2023-06-22T06:50:50;3.97;;;0.97;;
70477;SDS011;57956;53.362;-1.518;2023-06-22T06:53:19;8.40;;;1.17;;
70477;SDS011;57956;53.362;-1.518;2023-06-22T06:55:44;3.50;;;0.95;;
70477;SDS011;57956;53.362;-1.518;2023-06-22T06:58:10;5.25;;;1.50;;
70477;SDS011;57956;53.362;-1.518;2023-06-22T07:00:38;6.43;;;1.20;;
70477;SDS011;57956;53.362;-1.518;2023-06-22T07:03:03;3.60;;;0.97;;
70477;SDS011;57956;53.362;-1.518;2023-06-22T07:05:29;3.47;;;0.97;;
70477;SDS011;57956;53.362;-1.518;2023-06-22T07:07:54;4.27;;;1.23;;
70477;SDS011;57956;53.362;-1.518;2023-06-22T07:10:19;4.10;;;1.23;;
70477;SDS011;57956;53.362;-1.518;2023-06-22T07:12:44;5.53;;;0.98;;
70477;SDS011;57956;53.362;-1.518;2023-06-22T07:15:11;3.87;;;1.10;;
70477;SDS011;57956;53.362;-1.518;2023-06-22T07:17:37;3.80;;;1.00;;
70477;SDS011;57956;53.362;-1.518;2023-06-22T07:20:04;3.78;;;1.00;;
70477;SDS011;57956;53.362;-1.518;2023-06-22T07:22:35;4.28;;;1.10;;
70477;SDS011;57956;53.362;-1.518;2023-06-22T07:25:00;4.37;;;1.13;;
70477;SDS011;57956;53.362;-1.518;2023-06-22T07:27:26;4.53;;;1.30;;
70477;SDS011;57956;53.362;-1.518;2023-06-22T07:29:51;4.03;;;1.13;;
70477;SDS011;57956;53.362;-1.518;2023-06-22T07:32:16;3.50;;;1.03;;
70477;SDS011;57956;53.362;-1.518;2023-06-22T07:34:42;5.13;;;1.17;;
70477;SDS011;57956;53.362;-1.518;2023-06-22T07:37:07;4.70;;;1.05;;
70477;SDS011;57956;53.362;-1.518;2023-06-22T07:39:32;4.67;;;1.00;;
70477;SDS011;57956;53.362;-1.518;2023-06-22T07:41:58;4.67;;;1.13;;
70477;SDS011;57956;53.362;-1.518;2023-06-22T07:44:23;7.20;;;0.97;;
70477;SDS011;57956;53.362;-1.518;2023-06-22T07:46:48;5.57;;;1.10;;
70477;SDS011;57956;53.362;-1.518;2023-06-22T07:49:14;4.80;;;1.00;;
70477;SDS011;57956;53.362;-1.518;2023-06-22T07:51:39;3.20;;;0.87;;
70477;SDS011;57956;53.362;-1.518;2023-06-22T07:54:04;3.22;;;0.90;;
70477;SDS011;57956;53.362;-1.518;2023-06-22T07:56:29;4.63;;;0.83;;
70477;SDS011;57956;53.362;-1.518;2023-06-22T07:58:55;4.53;;;1.30;;
70477;SDS011;57956;53.362;-1.518;2023-06-22T08:01:23;4.17;;;1.03;;
70477;SDS011;57956;53.362;-1.518;2023-06-22T08:03:48;4.43;;;1.30;;
70477;SDS011;57956;53.362;-1.518;2023-06-22T08:06:14;5.93;;;1.17;;
70477;SDS011;57956;53.362;-1.518;2023-06-22T08:08:39;4.43;;;1.17;;
70477;SDS011;57956;53.362;-1.518;2023-06-22T08:11:05;4.10;;;1.10;;
70477;SDS011;57956;53.362;-1.518;2023-06-22T08:13:30;4.00;;;1.17;;
70477;SDS011;57956;53.362;-1.518;2023-06-22T08:15:56;3.90;;;1.00;;
70477;SDS011;57956;53.362;-1.518;2023-06-22T08:18:21;3.47;;;1.03;;
70477;SDS011;57956;53.362;-1.518;2023-06-22T08:20:46;3.83;;;1.10;;
70477;SDS011;57956;53.362;-1.518;2023-06-22T08:23:11;6.20;;;1.20;;
70477;SDS011;57956;53.362;-1.518;2023-06-22T08:25:37;3.73;;;0.90;;
70477;SDS011;57956;53.362;-1.518;2023-06-22T08:28:02;3.80;;;0.90;;
70477;SDS011;57956;53.362;-1.518;2023-06-22T08:30:28;4.63;;;1.40;;
70477;SDS011;57956;53.362;-1.518;2023-06-22T08:32:53;4.30;;;1.17;;
70477;SDS011;57956;53.362;-1.518;2023-06-22T08:35:22;4.57;;;1.20;;
70477;SDS011;57956;53.362;-1.518;2023-06-22T08:37:47;6.38;;;1.20;;
70477;SDS011;57956;53.362;-1.518;2023-06-22T08:40:17;4.80;;;1.00;;
70477;SDS011;57956;53.362;-1.518;2023-06-22T08:42:42;4.77;;;1.13;;
70477;SDS011;57956;53.362;-1.518;2023-06-22T08:45:07;5.80;;;1.20;;
70477;SDS011;57956;53.362;-1.518;2023-06-22T08:47:33;4.30;;;1.23;;
70477;SDS011;57956;53.362;-1.518;2023-06-22T08:49:58;5.15;;;1.80;;
70477;SDS011;57956;53.362;-1.518;2023-06-22T08:52:23;4.20;;;1.23;;
70477;SDS011;57956;53.362;-1.518;2023-06-22T08:54:49;4.43;;;1.20;;
70477;SDS011;57956;53.362;-1.518;2023-06-22T08:57:14;3.60;;;0.83;;
70477;SDS011;57956;53.362;-1.518;2023-06-22T08:59:40;5.00;;;1.42;;
70477;SDS011;57956;53.362;-1.518;2023-06-22T09:02:06;4.20;;;0.90;;
70477;SDS011;57956;53.362;-1.518;2023-06-22T09:04:31;3.97;;;1.10;;
70477;SDS011;57956;53.362;-1.518;2023-06-22T09:06:59;4.65;;;1.20;;
70477;SDS011;57956;53.362;-1.518;2023-06-22T09:09:25;4.57;;;1.20;;
70477;SDS011;57956;53.362;-1.518;2023-06-22T09:11:50;5.03;;;1.60;;
70477;SDS011;57956;53.362;-1.518;2023-06-22T09:14:15;4.27;;;1.20;;
70477;SDS011;57956;53.362;-1.518;2023-06-22T09:16:40;4.00;;;1.00;;
70477;SDS011;57956;53.362;-1.518;2023-06-22T09:19:06;4.17;;;1.03;;
70477;SDS011;57956;53.362;-1.518;2023-06-22T09:21:31;5.70;;;1.47;;
70477;SDS011;57956;53.362;-1.518;2023-06-22T09:23:56;4.43;;;1.27;;
70477;SDS011;57956;53.362;-1.518;2023-06-22T09:26:21;6.40;;;1.30;;
70477;SDS011;57956;53.362;-1.518;2023-06-22T09:28:48;5.80;;;1.30;;
70477;SDS011;57956;53.362;-1.518;2023-06-22T09:31:14;3.57;;;1.07;;
70477;SDS011;57956;53.362;-1.518;2023-06-22T09:33:41;4.28;;;1.50;;
70477;SDS011;57956;53.362;-1.518;2023-06-22T09:36:07;5.35;;;1.20;;
70477;SDS011;57956;53.362;-1.518;2023-06-22T09:38:35;3.97;;;0.90;;
70477;SDS011;57956;53.362;-1.518;2023-06-22T09:41:00;9.02;;;1.40;;
70477;SDS011;57956;53.362;-1.518;2023-06-22T09:43:26;3.53;;;1.10;;
70477;SDS011;57956;53.362;-1.518;2023-06-22T09:45:51;4.50;;;1.43;;
70477;SDS011;57956;53.362;-1.518;2023-06-22T09:48:17;4.40;;;1.67;;
70477;SDS011;57956;53.362;-1.518;2023-06-22T09:50:42;4.40;;;1.50;;
70477;SDS011;57956;53.362;-1.518;2023-06-22T09:53:07;4.83;;;1.50;;
70477;SDS011;57956;53.362;-1.518;2023-06-22T09:55:33;3.77;;;1.17;;
70477;SDS011;57956;53.362;-1.518;2023-06-22T09:57:58;4.20;;;1.20;;
70477;SDS011;57956;53.362;-1.518;2023-06-22T10:00:23;4.50;;;1.40;;
70477;SDS011;57956;53.362;-1.518;2023-06-22T10:02:48;5.63;;;1.63;;
70477;SDS011;57956;53.362;-1.518;2023-06-22T10:05:14;4.13;;;1.40;;
70477;SDS011;57956;53.362;-1.518;2023-06-22T10:07:39;4.73;;;1.87;;
70477;SDS011;57956;53.362;-1.518;2023-06-22T10:10:07;5.32;;;1.77;;
70477;SDS011;57956;53.362;-1.518;2023-06-22T10:12:33;4.20;;;1.15;;
70477;SDS011;57956;53.362;-1.518;2023-06-22T10:14:58;4.90;;;1.60;;
70477;SDS011;57956;53.362;-1.518;2023-06-22T10:17:23;4.10;;;1.30;;
70477;SDS011;57956;53.362;-1.518;2023-06-22T10:19:48;4.03;;;1.33;;
70477;SDS011;57956;53.362;-1.518;2023-06-22T10:22:13;4.73;;;1.50;;
70477;SDS011;57956;53.362;-1.518;2023-06-22T10:24:39;5.87;;;1.60;;
70477;SDS011;57956;53.362;-1.518;2023-06-22T10:27:09;4.82;;;1.60;;
70477;SDS011;57956;53.362;-1.518;2023-06-22T10:29:34;4.73;;;1.60;;
70477;SDS011;57956;53.362;-1.518;2023-06-22T10:32:00;5.70;;;1.70;;
70477;SDS011;57956;53.362;-1.518;2023-06-22T10:34:25;5.33;;;1.40;;
70477;SDS011;57956;53.362;-1.518;2023-06-22T10:36:50;4.40;;;1.30;;
70477;SDS011;57956;53.362;-1.518;2023-06-22T10:39:15;6.00;;;1.47;;
70477;SDS011;57956;53.362;-1.518;2023-06-22T10:41:40;4.43;;;1.60;;
70477;SDS011;57956;53.362;-1.518;2023-06-22T10:44:06;5.20;;;1.77;;
70477;SDS011;57956;53.362;-1.518;2023-06-22T10:46:31;7.73;;;1.70;;
70477;SDS011;57956;53.362;-1.518;2023-06-22T10:48:56;6.53;;;2.03;;
70477;SDS011;57956;53.362;-1.518;2023-06-22T10:51:23;4.73;;;1.70;;
70477;SDS011;57956;53.362;-1.518;2023-06-22T10:53:49;5.60;;;1.70;;
70477;SDS011;57956;53.362;-1.518;2023-06-22T10:56:15;5.03;;;1.57;;
70477;SDS011;57956;53.362;-1.518;2023-06-22T10:58:41;5.87;;;1.87;;
70477;SDS011;57956;53.362;-1.518;2023-06-22T11:01:06;7.17;;;2.13;;
70477;SDS011;57956;53.362;-1.518;2023-06-22T11:03:31;5.07;;;1.53;;
70477;SDS011;57956;53.362;-1.518;2023-06-22T11:05:56;5.50;;;1.60;;
70477;SDS011;57956;53.362;-1.518;2023-06-22T11:08:21;5.27;;;1.87;;
70477;SDS011;57956;53.362;-1.518;2023-06-22T11:10:47;6.30;;;2.10;;
70477;SDS011;57956;53.362;-1.518;2023-06-22T11:13:12;8.67;;;2.77;;
70477;SDS011;57956;53.362;-1.518;2023-06-22T11:15:38;7.13;;;1.80;;
70477;SDS011;57956;53.362;-1.518;2023-06-22T11:18:03;5.93;;;1.60;;
70477;SDS011;57956;53.362;-1.518;2023-06-22T11:20:30;9.53;;;1.90;;
70477;SDS011;57956;53.362;-1.518;2023-06-22T11:22:55;5.97;;;1.70;;
70477;SDS011;57956;53.362;-1.518;2023-06-22T11:25:20;6.97;;;2.13;;
70477;SDS011;57956;53.362;-1.518;2023-06-22T11:27:46;6.77;;;2.50;;
70477;SDS011;57956;53.362;-1.518;2023-06-22T11:30:11;6.60;;;2.47;;
70477;SDS011;57956;53.362;-1.518;2023-06-22T11:32:36;6.60;;;2.43;;
70477;SDS011;57956;53.362;-1.518;2023-06-22T11:35:01;6.57;;;2.60;;
70477;SDS011;57956;53.362;-1.518;2023-06-22T11:37:27;8.47;;;2.43;;
70477;SDS011;57956;53.362;-1.518;2023-06-22T11:39:52;6.55;;;2.45;;
70477;SDS011;57956;53.362;-1.518;2023-06-22T11:42:19;6.63;;;2.53;;
70477;SDS011;57956;53.362;-1.518;2023-06-22T11:44:45;6.00;;;2.20;;
70477;SDS011;57956;53.362;-1.518;2023-06-22T11:47:10;6.23;;;2.03;;
70477;SDS011;57956;53.362;-1.518;2023-06-22T11:49:36;7.63;;;2.07;;
70477;SDS011;57956;53.362;-1.518;2023-06-22T11:52:01;8.30;;;2.90;;
70477;SDS011;57956;53.362;-1.518;2023-06-22T11:54:26;8.73;;;3.10;;
70477;SDS011;57956;53.362;-1.518;2023-06-22T11:56:51;7.90;;;2.80;;
70477;SDS011;57956;53.362;-1.518;2023-06-22T11:59:16;9.53;;;3.07;;
70477;SDS011;57956;53.362;-1.518;2023-06-22T12:01:42;8.68;;;2.65;;
70477;SDS011;57956;53.362;-1.518;2023-06-22T12:04:07;11.20;;;3.07;;
70477;SDS011;57956;53.362;-1.518;2023-06-22T12:06:35;8.83;;;3.10;;
70477;SDS011;57956;53.362;-1.518;2023-06-22T12:09:03;5.97;;;2.28;;
70477;SDS011;57956;53.362;-1.518;2023-06-22T12:11:29;7.22;;;2.70;;
70477;SDS011;57956;53.362;-1.518;2023-06-22T12:13:54;7.77;;;2.60;;
70477;SDS011;57956;53.362;-1.518;2023-06-22T12:16:20;6.10;;;2.23;;
70477;SDS011;57956;53.362;-1.518;2023-06-22T12:18:46;7.70;;;2.40;;
70477;SDS011;57956;53.362;-1.518;2023-06-22T12:21:11;6.30;;;2.40;;
70477;SDS011;57956;53.362;-1.518;2023-06-22T12:23:37;8.33;;;2.50;;
70477;SDS011;57956;53.362;-1.518;2023-06-22T12:26:02;7.47;;;2.80;;
70477;SDS011;57956;53.362;-1.518;2023-06-22T12:28:27;6.90;;;2.87;;
70477;SDS011;57956;53.362;-1.518;2023-06-22T12:30:52;7.60;;;2.40;;
70477;SDS011;57956;53.362;-1.518;2023-06-22T12:33:17;4.83;;;1.93;;
70477;SDS011;57956;53.362;-1.518;2023-06-22T12:35:43;3.87;;;1.33;;
70477;SDS011;57956;53.362;-1.518;2023-06-22T12:38:10;3.50;;;1.30;;
70477;SDS011;57956;53.362;-1.518;2023-06-22T12:40:35;4.00;;;1.30;;
70477;SDS011;57956;53.362;-1.518;2023-06-22T12:43:00;4.23;;;1.43;;
70477;SDS011;57956;53.362;-1.518;2023-06-22T12:45:27;3.72;;;1.30;;
70477;SDS011;57956;53.362;-1.518;2023-06-22T12:47:54;4.60;;;1.70;;
70477;SDS011;57956;53.362;-1.518;2023-06-22T12:50:19;4.40;;;1.63;;
70477;SDS011;57956;53.362;-1.518;2023-06-22T12:52:44;5.80;;;2.00;;
70477;SDS011;57956;53.362;-1.518;2023-06-22T12:55:09;6.53;;;2.07;;
70477;SDS011;57956;53.362;-1.518;2023-06-22T12:57:34;5.10;;;1.80;;
70477;SDS011;57956;53.362;-1.518;2023-06-22T13:00:00;5.13;;;1.63;;
70477;SDS011;57956;53.362;-1.518;2023-06-22T13:02:26;6.07;;;1.73;;
70477;SDS011;57956;53.362;-1.518;2023-06-22T13:04:51;4.50;;;1.70;;
70477;SDS011;57956;53.362;-1.518;2023-06-22T13:07:16;5.30;;;1.80;;
70477;SDS011;57956;53.362;-1.518;2023-06-22T13:09:41;5.03;;;1.50;;
70477;SDS011;57956;53.362;-1.518;2023-06-22T13:12:07;5.33;;;1.80;;
70477;SDS011;57956;53.362;-1.518;2023-06-22T13:14:32;4.50;;;1.25;;
70477;SDS011;57956;53.362;-1.518;2023-06-22T13:16:57;4.73;;;1.50;;
70477;SDS011;57956;53.362;-1.518;2023-06-22T13:19:23;4.00;;;1.53;;
70477;SDS011;57956;53.362;-1.518;2023-06-22T13:21:48;5.30;;;1.90;;
70477;SDS011;57956;53.362;-1.518;2023-06-22T13:24:13;3.87;;;1.20;;
70477;SDS011;57956;53.362;-1.518;2023-06-22T13:26:38;4.60;;;1.43;;
70477;SDS011;57956;53.362;-1.518;2023-06-22T13:29:04;4.03;;;1.37;;
70477;SDS011;57956;53.362;-1.518;2023-06-22T13:31:29;4.40;;;1.63;;
70477;SDS011;57956;53.362;-1.518;2023-06-22T13:33:54;3.77;;;1.20;;
70477;SDS011;57956;53.362;-1.518;2023-06-22T13:36:19;4.63;;;1.30;;
70477;SDS011;57956;53.362;-1.518;2023-06-22T13:38:45;3.97;;;1.53;;
70477;SDS011;57956;53.362;-1.518;2023-06-22T13:41:10;4.13;;;1.23;;
70477;SDS011;57956;53.362;-1.518;2023-06-22T13:43:35;4.40;;;1.00;;
70477;SDS011;57956;53.362;-1.518;2023-06-22T13:46:00;3.53;;;1.00;;
70477;SDS011;57956;53.362;-1.518;2023-06-22T13:48:25;3.87;;;1.40;;
70477;SDS011;57956;53.362;-1.518;2023-06-22T13:50:51;3.87;;;1.00;;
70477;SDS011;57956;53.362;-1.518;2023-06-22T13:53:16;5.40;;;1.57;;
70477;SDS011;57956;53.362;-1.518;2023-06-22T13:55:41;3.53;;;1.17;;
70477;SDS011;57956;53.362;-1.518;2023-06-22T13:58:07;3.73;;;1.03;;
70477;SDS011;57956;53.362;-1.518;2023-06-22T14:00:32;3.23;;;1.00;;
70477;SDS011;57956;53.362;-1.518;2023-06-22T14:02:57;3.87;;;1.10;;
70477;SDS011;57956;53.362;-1.518;2023-06-22T14:05:23;3.80;;;0.80;;
70477;SDS011;57956;53.362;-1.518;2023-06-22T14:07:48;4.00;;;1.10;;
70477;SDS011;57956;53.362;-1.518;2023-06-22T14:10:13;4.17;;;1.20;;
70477;SDS011;57956;53.362;-1.518;2023-06-22T14:12:38;4.30;;;0.83;;
70477;SDS011;57956;53.362;-1.518;2023-06-22T14:15:04;4.43;;;0.77;;
70477;SDS011;57956;53.362;-1.518;2023-06-22T14:17:29;4.07;;;1.10;;
70477;SDS011;57956;53.362;-1.518;2023-06-22T14:19:54;3.10;;;1.10;;
70477;SDS011;57956;53.362;-1.518;2023-06-22T14:22:20;2.65;;;0.80;;
70477;SDS011;57956;53.362;-1.518;2023-06-22T14:24:47;3.80;;;0.90;;
70477;SDS011;57956;53.362;-1.518;2023-06-22T14:27:12;3.17;;;1.00;;
70477;SDS011;57956;53.362;-1.518;2023-06-22T14:29:37;3.20;;;1.00;;